Terminal Aerodrome Forecast
Issued by NWS Sterling, VA

Home | Current Version | Previous Version | Text Only | Print | Product List | Glossary On
Versions: 1 2 3 4 5 6 7 8 9 10 11 12 13 14
000
FTUS41 KLWX 142300
TAFCHO
TAF
KCHO 142323Z 1500/1524 00000KT P6SM BKN040
     FM150500 00000KT 3SM BR SCT050
     FM150700 00000KT 2SM BR SCT050
     FM151000 00000KT 1/2SM FG SCT050
     FM151300 18003KT P6SM SCT120=

USA.gov is the U.S. government's official web portal to all federal, state and local government web resources and services.